Time;durP1;ratioP1;P1;durP2;ratioP2;P2;SDS_P1;SDS_P2;PMS_P1;PMS_P2;Temp;Humidity;BMP_temperature;BMP_pressure;BME280_temperature;BME280_humidity;BME280_pressure;Samples;Min_cycle;Max_cycle;Signal;HPM_P1;HPM_P2
2022/01/26 00:00:18;;;;;;;105.70;23.70;;;;;;;;;;5035475;28;20449;-76
2022/01/26 00:05:49;;;;;;;61.97;23.67;;;;;;;;;;5035140;28;20445;-75
2022/01/26 00:08:16;;;;;;;58.73;26.23;;;;;;;;;;5038685;28;21683;-76
2022/01/26 00:10:42;;;;;;;91.13;26.47;;;;;;;;;;5035789;28;20434;-77
2022/01/26 00:13:08;;;;;;;109.70;24.00;;;;;;;;;;5035348;28;20478;-76
2022/01/26 00:15:34;;;;;;;46.50;25.77;;;;;;;;;;5035324;28;20513;-77
2022/01/26 00:18:00;;;;;;;96.17;22.63;;;;;;;;;;5039506;28;20434;-76
2022/01/26 00:20:35;;;;;;;102.87;24.03;;;;;;;;;;4994667;28;20458;-76
2022/01/26 00:23:19;;;;;;;82.10;24.33;;;;;;;;;;5039614;28;20477;-77
2022/01/26 00:39:48;;;;;;;82.37;29.17;;;;;;;;;;5026009;28;20483;-75
2022/01/26 00:42:14;;;;;;;114.77;26.20;;;;;;;;;;5038659;28;21051;-78
2022/01/26 00:44:44;;;;;;;61.40;24.40;;;;;;;;;;5037451;28;20832;-76
2022/01/26 00:47:11;;;;;;;68.37;23.50;;;;;;;;;;5040207;28;20430;-76
2022/01/26 00:49:37;;;;;;;67.80;25.17;;;;;;;;;;5023506;28;20495;-76
2022/01/26 00:52:06;;;;;;;77.30;23.17;;;;;;;;;;5041445;28;20441;-76
2022/01/26 00:54:32;;;;;;;70.23;22.77;;;;;;;;;;4999227;28;25070;-76
2022/01/26 00:56:58;;;;;;;64.93;20.40;;;;;;;;;;5040129;28;20480;-77
2022/01/26 00:59:23;;;;;;;90.80;27.47;;;;;;;;;;5037337;28;20468;-77
2022/01/26 01:01:51;;;;;;;72.27;25.53;;;;;;;;;;5042318;28;20485;-77
2022/01/26 01:04:16;;;;;;;108.40;24.30;;;;;;;;;;5032962;28;20541;-76
2022/01/26 01:06:51;;;;;;;142.87;26.50;;;;;;;;;;5043622;28;21019;-76
2022/01/26 01:09:20;;;;;;;92.97;24.53;;;;;;;;;;5022964;28;20450;-76
2022/01/26 01:11:46;;;;;;;138.43;27.00;;;;;;;;;;5041003;28;20437;-76
2022/01/26 01:14:11;;;;;;;100.50;25.40;;;;;;;;;;5037073;28;20500;-76
2022/01/26 01:16:38;;;;;;;77.47;23.37;;;;;;;;;;5039794;28;20470;-76
2022/01/26 01:34:11;;;;;;;62.23;21.63;;;;;;;;;;5018639;28;20452;-78
2022/01/26 01:36:39;;;;;;;46.97;22.37;;;;;;;;;;5040284;28;20445;-77
2022/01/26 01:39:09;;;;;;;78.63;22.77;;;;;;;;;;5028350;28;21626;-76
2022/01/26 01:41:35;;;;;;;50.90;20.97;;;;;;;;;;5034538;28;20438;-77
2022/01/26 01:44:02;;;;;;;96.27;25.07;;;;;;;;;;5041067;28;20473;-76
2022/01/26 01:46:28;;;;;;;86.77;23.33;;;;;;;;;;5040132;28;20437;-77
2022/01/26 01:48:54;;;;;;;40.27;19.00;;;;;;;;;;5042970;28;20442;-78
2022/01/26 01:51:26;;;;;;;46.57;22.77;;;;;;;;;;5035837;28;20540;-77
2022/01/26 01:53:53;;;;;;;42.73;20.20;;;;;;;;;;5039946;28;20435;-78
2022/01/26 01:56:23;;;;;;;56.10;21.97;;;;;;;;;;5030926;28;21330;-76
2022/01/26 01:58:53;;;;;;;56.10;19.90;;;;;;;;;;5026216;28;20605;-76
2022/01/26 02:01:20;;;;;;;38.73;20.13;;;;;;;;;;5018581;28;20435;-78
2022/01/26 02:03:46;;;;;;;41.90;20.93;;;;;;;;;;5039933;28;20470;-75
2022/01/26 02:06:12;;;;;;;33.30;18.90;;;;;;;;;;5041954;28;20436;-76
2022/01/26 02:08:40;;;;;;;45.23;19.63;;;;;;;;;;5034158;28;20956;-76
2022/01/26 02:11:09;;;;;;;45.97;20.10;;;;;;;;;;5025958;28;20850;-76
2022/01/26 02:13:43;;;;;;;93.10;18.70;;;;;;;;;;5047860;28;20473;-77
2022/01/26 03:00:12;;;;;;;27.57;13.53;;;;;;;;;;4999723;28;20867;-76
2022/01/26 03:02:36;;;;;;;25.50;14.33;;;;;;;;;;5040578;28;20464;-76
2022/01/26 03:05:04;;;;;;;32.07;16.50;;;;;;;;;;5037221;28;20445;-77
2022/01/26 03:10:08;;;;;;;28.00;15.07;;;;;;;;;;5033662;28;20544;-77
2022/01/26 03:12:50;;;;;;;24.97;14.50;;;;;;;;;;5040853;28;21134;-77
2022/01/26 03:15:25;;;;;;;21.50;13.47;;;;;;;;;;5032483;28;21233;-77
2022/01/26 03:18:13;;;;;;;24.67;12.80;;;;;;;;;;5038558;28;21047;-76
2022/01/26 03:20:39;;;;;;;31.37;14.13;;;;;;;;;;5019907;28;20979;-76
2022/01/26 03:28:42;;;;;;;33.53;15.07;;;;;;;;;;5039778;28;20532;-76
2022/01/26 03:34:07;;;;;;;25.70;13.00;;;;;;;;;;5023282;28;21070;-76
2022/01/26 03:36:46;;;;;;;24.63;14.80;;;;;;;;;;5026146;28;20951;-76
2022/01/26 03:39:14;;;;;;;38.53;14.10;;;;;;;;;;5033705;28;20440;-76
2022/01/26 03:44:07;;;;;;;23.23;12.90;;;;;;;;;;5035651;28;21025;-76
2022/01/26 03:46:33;;;;;;;27.57;12.70;;;;;;;;;;5014804;28;20848;-76
2022/01/26 03:48:59;;;;;;;41.17;13.47;;;;;;;;;;5027433;28;20560;-75
2022/01/26 03:51:25;;;;;;;27.60;14.30;;;;;;;;;;5018228;28;20438;-76
2022/01/26 03:53:51;;;;;;;47.30;16.07;;;;;;;;;;5014412;28;20449;-76
2022/01/26 03:56:17;;;;;;;34.73;16.23;;;;;;;;;;5023603;28;20809;-75
2022/01/26 03:58:43;;;;;;;36.43;15.03;;;;;;;;;;5036622;28;20432;-76
2022/01/26 04:01:09;;;;;;;22.10;12.47;;;;;;;;;;5035353;28;20434;-76
2022/01/26 04:03:35;;;;;;;33.00;14.77;;;;;;;;;;5035727;28;20470;-78
2022/01/26 04:06:01;;;;;;;32.77;13.30;;;;;;;;;;5001882;28;20446;-77
2022/01/26 04:08:31;;;;;;;28.40;17.80;;;;;;;;;;5039240;28;22621;-76
2022/01/26 04:11:28;;;;;;;28.13;13.60;;;;;;;;;;5035829;28;20774;-76
2022/01/26 04:13:54;;;;;;;38.83;13.93;;;;;;;;;;5040391;28;20554;-76
2022/01/26 04:16:22;;;;;;;38.67;17.60;;;;;;;;;;5022221;28;20855;-76
2022/01/26 04:18:48;;;;;;;39.80;15.80;;;;;;;;;;5042445;28;20429;-76
2022/01/26 04:23:58;;;;;;;32.40;15.27;;;;;;;;;;5020242;28;20492;-75
2022/01/26 04:26:31;;;;;;;35.40;15.23;;;;;;;;;;5041578;28;20533;-76
2022/01/26 04:29:05;;;;;;;39.40;16.13;;;;;;;;;;5028070;28;20442;-76
2022/01/26 04:31:31;;;;;;;38.50;17.47;;;;;;;;;;5039322;28;20433;-75
2022/01/26 04:33:57;;;;;;;35.70;14.77;;;;;;;;;;5043722;28;20469;-75
2022/01/26 04:36:33;;;;;;;42.90;17.57;;;;;;;;;;5004748;28;20457;-76
2022/01/26 04:39:05;;;;;;;43.57;18.10;;;;;;;;;;5041785;28;20437;-76
2022/01/26 04:41:36;;;;;;;41.73;18.90;;;;;;;;;;5040664;28;20959;-76
2022/01/26 04:44:09;;;;;;;41.03;15.97;;;;;;;;;;5042304;28;20476;-76
2022/01/26 04:46:35;;;;;;;31.77;17.87;;;;;;;;;;5036861;28;20429;-76
2022/01/26 04:49:02;;;;;;;39.50;15.37;;;;;;;;;;5041818;28;20467;-75
2022/01/26 04:51:28;;;;;;;39.13;14.53;;;;;;;;;;5021529;28;20946;-75
2022/01/26 04:53:54;;;;;;;44.00;17.10;;;;;;;;;;5043661;28;20491;-76
2022/01/26 04:56:20;;;;;;;48.17;16.77;;;;;;;;;;5040027;28;20488;-76
2022/01/26 04:58:46;;;;;;;35.17;16.37;;;;;;;;;;5042191;28;20423;-77
2022/01/26 05:01:12;;;;;;;33.93;16.30;;;;;;;;;;5017519;28;20438;-75
2022/01/26 05:03:38;;;;;;;31.03;17.37;;;;;;;;;;5038230;28;20572;-75
2022/01/26 05:06:04;;;;;;;39.40;17.40;;;;;;;;;;5037073;28;20442;-76
2022/01/26 05:08:30;;;;;;;52.07;18.47;;;;;;;;;;5037745;28;20465;-76
2022/01/26 05:10:56;;;;;;;35.37;15.83;;;;;;;;;;4978154;28;20446;-76
2022/01/26 05:13:22;;;;;;;34.63;16.03;;;;;;;;;;5042319;28;20531;-76
2022/01/26 05:15:48;;;;;;;39.80;17.93;;;;;;;;;;5038699;28;20438;-75
2022/01/26 05:18:14;;;;;;;40.83;14.70;;;;;;;;;;5042107;28;20438;-77
2022/01/26 05:20:40;;;;;;;33.03;16.60;;;;;;;;;;5034005;28;20901;-77
2022/01/26 05:23:08;;;;;;;37.70;16.73;;;;;;;;;;5038373;28;21474;-76
2022/01/26 05:25:34;;;;;;;31.80;15.60;;;;;;;;;;5020906;28;20431;-76
2022/01/26 05:28:00;;;;;;;39.30;17.00;;;;;;;;;;5039375;28;20449;-77
2022/01/26 05:30:27;;;;;;;36.40;15.60;;;;;;;;;;5015547;28;20591;-77
2022/01/26 05:32:53;;;;;;;40.13;14.57;;;;;;;;;;5038750;28;20444;-76
2022/01/26 05:35:19;;;;;;;28.60;14.83;;;;;;;;;;5038828;28;20534;-75
2022/01/26 05:37:45;;;;;;;52.37;16.70;;;;;;;;;;5036807;28;20442;-75
2022/01/26 05:40:13;;;;;;;32.20;16.33;;;;;;;;;;5018876;28;21124;-76
2022/01/26 05:42:41;;;;;;;37.50;17.40;;;;;;;;;;4993565;28;20466;-76
2022/01/26 05:45:17;;;;;;;40.23;16.00;;;;;;;;;;5035961;28;20723;-77
2022/01/26 05:47:43;;;;;;;36.77;16.23;;;;;;;;;;5030726;28;20476;-76
2022/01/26 05:50:09;;;;;;;31.67;17.27;;;;;;;;;;5036542;28;20428;-77
2022/01/26 05:52:35;;;;;;;36.97;14.87;;;;;;;;;;5019174;28;20439;-76
2022/01/26 05:55:01;;;;;;;39.33;16.50;;;;;;;;;;5036486;28;20451;-77
2022/01/26 05:57:27;;;;;;;34.00;15.73;;;;;;;;;;5033241;28;20431;-77
2022/01/26 05:59:54;;;;;;;26.97;11.87;;;;;;;;;;5037017;28;20445;-75
2022/01/26 06:02:20;;;;;;;31.80;15.30;;;;;;;;;;5012377;28;20490;-75
2022/01/26 06:04:47;;;;;;;35.70;17.60;;;;;;;;;;5035672;28;21152;-76
2022/01/26 06:07:13;;;;;;;30.87;13.97;;;;;;;;;;5015649;28;20441;-76
2022/01/26 06:09:39;;;;;;;32.07;14.80;;;;;;;;;;5041686;28;20453;-76
2022/01/26 06:12:05;;;;;;;32.30;15.90;;;;;;;;;;4999360;28;20593;-77
2022/01/26 06:14:32;;;;;;;30.33;17.83;;;;;;;;;;5040703;28;20538;-76
2022/01/26 06:16:58;;;;;;;32.33;15.00;;;;;;;;;;5016131;28;20945;-77
2022/01/26 06:19:24;;;;;;;39.77;17.07;;;;;;;;;;5039263;28;21116;-77
2022/01/26 06:21:50;;;;;;;34.10;15.37;;;;;;;;;;5033659;28;20453;-74
2022/01/26 06:24:16;;;;;;;33.10;15.73;;;;;;;;;;5021807;28;20480;-75
2022/01/26 06:26:42;;;;;;;39.90;18.97;;;;;;;;;;5043339;28;20483;-74
2022/01/26 06:29:08;;;;;;;28.90;15.60;;;;;;;;;;5041602;28;20535;-74
2022/01/26 06:31:38;;;;;;;31.50;15.23;;;;;;;;;;5042832;28;20446;-74
2022/01/26 06:34:04;;;;;;;41.27;16.03;;;;;;;;;;5020352;28;20442;-75
2022/01/26 06:36:30;;;;;;;23.67;13.73;;;;;;;;;;5045692;28;20443;-75
2022/01/26 06:38:56;;;;;;;27.00;13.70;;;;;;;;;;5039155;28;21348;-75
2022/01/26 06:41:25;;;;;;;27.07;16.80;;;;;;;;;;5039252;28;20439;-75
2022/01/26 06:43:57;;;;;;;32.43;15.03;;;;;;;;;;4999661;28;20474;-73
2022/01/26 06:46:37;;;;;;;35.73;15.50;;;;;;;;;;5041310;28;20890;-73
2022/01/26 06:49:28;;;;;;;29.10;15.10;;;;;;;;;;5021475;28;20433;-73
2022/01/26 06:51:50;;;;;;;28.10;15.53;;;;;;;;;;5039038;28;20430;-73
2022/01/26 06:54:17;;;;;;;29.27;13.50;;;;;;;;;;5030269;28;20567;-74
2022/01/26 06:56:45;;;;;;;28.30;14.60;;;;;;;;;;5024406;28;21269;-74
2022/01/26 06:59:12;;;;;;;29.60;14.77;;;;;;;;;;5042231;28;20458;-77
2022/01/26 07:01:38;;;;;;;24.73;13.13;;;;;;;;;;5026070;28;20441;-76
2022/01/26 07:04:04;;;;;;;27.03;17.23;;;;;;;;;;5037850;28;20571;-75
2022/01/26 07:06:31;;;;;;;31.13;16.93;;;;;;;;;;5025880;28;20437;-76
2022/01/26 07:08:57;;;;;;;30.07;14.17;;;;;;;;;;5044019;28;20426;-75
2022/01/26 07:11:24;;;;;;;29.77;15.67;;;;;;;;;;5030402;28;20449;-75
2022/01/26 07:13:52;;;;;;;26.37;13.47;;;;;;;;;;5042630;28;20461;-74
2022/01/26 07:21:49;;;;;;;25.13;14.00;;;;;;;;;;5028698;28;20495;-76
2022/01/26 07:24:15;;;;;;;36.40;17.13;;;;;;;;;;5034799;28;20526;-74
2022/01/26 07:26:42;;;;;;;28.10;15.20;;;;;;;;;;5034433;28;20523;-74
2022/01/26 07:29:12;;;;;;;20.87;12.67;;;;;;;;;;5040119;28;20431;-76
2022/01/26 07:31:42;;;;;;;31.87;14.43;;;;;;;;;;5030276;28;20537;-75
2022/01/26 07:34:10;;;;;;;26.53;14.93;;;;;;;;;;5013520;28;20445;-75
2022/01/26 07:36:36;;;;;;;31.80;17.00;;;;;;;;;;5045875;28;20447;-75
2022/01/26 07:39:07;;;;;;;32.20;15.77;;;;;;;;;;5022224;28;20504;-74
2022/01/26 07:41:34;;;;;;;35.00;14.87;;;;;;;;;;5040122;28;20432;-75
2022/01/26 07:44:00;;;;;;;27.93;13.80;;;;;;;;;;5019380;28;20466;-75
2022/01/26 07:46:27;;;;;;;27.43;14.80;;;;;;;;;;5040390;28;20457;-75
2022/01/26 07:48:53;;;;;;;28.80;14.53;;;;;;;;;;4997964;28;20453;-74
2022/01/26 07:51:20;;;;;;;31.70;13.77;;;;;;;;;;5039182;28;20515;-75
2022/01/26 07:53:46;;;;;;;34.10;15.13;;;;;;;;;;5019191;28;20449;-75
2022/01/26 07:56:12;;;;;;;27.40;14.20;;;;;;;;;;5044315;28;20457;-75
2022/01/26 07:58:40;;;;;;;30.63;13.37;;;;;;;;;;5034507;28;20469;-75
2022/01/26 08:01:06;;;;;;;27.47;13.77;;;;;;;;;;5037791;28;20448;-74
2022/01/26 08:03:35;;;;;;;29.63;15.40;;;;;;;;;;5019461;28;20481;-73
2022/01/26 08:06:01;;;;;;;24.63;14.80;;;;;;;;;;5041627;28;20887;-73
2022/01/26 08:08:28;;;;;;;34.77;15.83;;;;;;;;;;5019219;28;20442;-75
2022/01/26 08:10:55;;;;;;;38.07;17.90;;;;;;;;;;5040046;28;21622;-75
2022/01/26 08:13:21;;;;;;;37.47;16.43;;;;;;;;;;5034261;28;20446;-73
2022/01/26 08:15:46;;;;;;;30.73;16.47;;;;;;;;;;5033496;28;21300;-73
2022/01/26 08:18:12;;;;;;;30.90;14.27;;;;;;;;;;5020250;28;20441;-75
2022/01/26 08:20:40;;;;;;;35.07;15.97;;;;;;;;;;5038151;28;21008;-76
2022/01/26 08:23:06;;;;;;;21.50;14.00;;;;;;;;;;4992510;28;20515;-74
2022/01/26 08:25:32;;;;;;;32.00;16.63;;;;;;;;;;5015654;28;21657;-76
2022/01/26 08:28:04;;;;;;;26.57;14.47;;;;;;;;;;5035601;28;20445;-75
2022/01/26 08:30:35;;;;;;;30.10;16.73;;;;;;;;;;5035615;28;20555;-76
2022/01/26 08:33:01;;;;;;;27.93;14.50;;;;;;;;;;5040540;28;20452;-75
2022/01/26 08:35:27;;;;;;;29.40;14.73;;;;;;;;;;5017922;28;20461;-75
2022/01/26 08:37:54;;;;;;;26.47;14.23;;;;;;;;;;5008742;28;24039;-76
2022/01/26 08:40:20;;;;;;;32.10;18.57;;;;;;;;;;5020884;28;20476;-76
2022/01/26 08:42:46;;;;;;;26.53;16.53;;;;;;;;;;5030251;28;20480;-75
2022/01/26 08:45:12;;;;;;;32.70;15.70;;;;;;;;;;5021134;28;20438;-75
2022/01/26 08:47:38;;;;;;;34.90;18.00;;;;;;;;;;5027956;28;20429;-75
2022/01/26 08:50:04;;;;;;;32.40;16.60;;;;;;;;;;5024919;28;20561;-74
2022/01/26 08:52:44;;;;;;;27.93;14.57;;;;;;;;;;5037948;28;20445;-75
2022/01/26 08:55:11;;;;;;;24.73;15.67;;;;;;;;;;5009237;28;20461;-75
2022/01/26 08:57:37;;;;;;;29.90;13.70;;;;;;;;;;5037023;28;20436;-75
2022/01/26 09:00:05;;;;;;;28.30;13.03;;;;;;;;;;5024020;28;20438;-76
2022/01/26 09:02:32;;;;;;;35.87;13.97;;;;;;;;;;5035408;28;20473;-75
2022/01/26 09:04:58;;;;;;;27.67;13.97;;;;;;;;;;5025933;28;20497;-76
2022/01/26 09:07:24;;;;;;;28.23;15.57;;;;;;;;;;5038810;28;20536;-76
2022/01/26 09:09:50;;;;;;;25.33;15.03;;;;;;;;;;5020945;28;20441;-76
2022/01/26 09:12:18;;;;;;;34.60;15.73;;;;;;;;;;5038345;28;20488;-74
2022/01/26 09:14:44;;;;;;;26.23;13.10;;;;;;;;;;5020193;28;20447;-74
2022/01/26 09:17:11;;;;;;;32.77;17.10;;;;;;;;;;5042582;28;20441;-75
2022/01/26 09:19:37;;;;;;;30.80;14.63;;;;;;;;;;5020157;28;20445;-74
2022/01/26 09:22:07;;;;;;;29.70;16.07;;;;;;;;;;5041863;28;20434;-74
2022/01/26 09:24:34;;;;;;;36.60;16.43;;;;;;;;;;5017424;28;20550;-75
2022/01/26 09:27:00;;;;;;;34.97;14.87;;;;;;;;;;5040857;28;20444;-75
2022/01/26 09:29:26;;;;;;;30.70;14.70;;;;;;;;;;5001092;28;21818;-76
2022/01/26 09:31:52;;;;;;;35.80;14.87;;;;;;;;;;5046794;28;21061;-74
2022/01/26 09:34:19;;;;;;;35.33;13.20;;;;;;;;;;5025563;28;20432;-75
2022/01/26 09:36:45;;;;;;;31.63;14.53;;;;;;;;;;5051398;28;20445;-74
2022/01/26 09:39:14;;;;;;;25.87;13.30;;;;;;;;;;5043987;28;20496;-75
2022/01/26 09:41:40;;;;;;;26.17;14.60;;;;;;;;;;5025660;28;21319;-76
2022/01/26 09:44:08;;;;;;;36.70;14.67;;;;;;;;;;5046884;28;20478;-75
2022/01/26 09:46:34;;;;;;;30.60;15.73;;;;;;;;;;5029325;28;20629;-75
2022/01/26 09:49:01;;;;;;;29.60;13.87;;;;;;;;;;5041367;28;21228;-75
2022/01/26 09:51:27;;;;;;;35.93;17.93;;;;;;;;;;5027631;28;21998;-76
2022/01/26 09:54:00;;;;;;;27.20;14.40;;;;;;;;;;5036918;28;20569;-75
2022/01/26 09:56:26;;;;;;;26.10;13.77;;;;;;;;;;5031057;28;20428;-76
2022/01/26 09:58:53;;;;;;;33.30;15.23;;;;;;;;;;5038316;28;20472;-76
2022/01/26 10:01:37;;;;;;;28.07;12.90;;;;;;;;;;5030791;28;22040;-76
2022/01/26 10:04:07;;;;;;;27.03;13.60;;;;;;;;;;5063090;28;20481;-75
2022/01/26 10:06:35;;;;;;;32.90;14.23;;;;;;;;;;5038520;28;20421;-75
2022/01/26 10:17:28;;;;;;;28.53;13.23;;;;;;;;;;5027327;28;20481;-74
2022/01/26 10:19:57;;;;;;;29.37;14.50;;;;;;;;;;5079191;27;20441;-76
2022/01/26 10:22:31;;;;;;;33.77;14.23;;;;;;;;;;5040364;28;20442;-75
2022/01/26 10:25:04;;;;;;;28.63;14.93;;;;;;;;;;5050258;28;20441;-74
2022/01/26 10:27:43;;;;;;;24.57;12.80;;;;;;;;;;5044238;28;20505;-74
2022/01/26 10:30:11;;;;;;;27.27;12.53;;;;;;;;;;5043296;28;20442;-75
2022/01/26 10:32:38;;;;;;;25.60;12.97;;;;;;;;;;5000034;28;20460;-75
2022/01/26 10:35:05;;;;;;;25.27;11.90;;;;;;;;;;5037936;28;20446;-74
2022/01/26 10:37:32;;;;;;;38.67;15.13;;;;;;;;;;5010858;28;20441;-73
2022/01/26 10:40:19;;;;;;;25.03;14.27;;;;;;;;;;5034139;28;21514;-75
2022/01/26 10:43:04;;;;;;;32.97;16.40;;;;;;;;;;5011372;28;21166;-75
2022/01/26 10:45:45;;;;;;;25.50;13.07;;;;;;;;;;5040868;28;21879;-74
2022/01/26 10:48:24;;;;;;;24.43;13.80;;;;;;;;;;5032123;28;20499;-75
2022/01/26 10:53:40;;;;;;;30.40;13.67;;;;;;;;;;5022884;28;20455;-75
2022/01/26 10:56:06;;;;;;;24.20;12.40;;;;;;;;;;5037606;28;21364;-75
2022/01/26 10:58:32;;;;;;;27.27;14.50;;;;;;;;;;5032524;28;20442;-74
2022/01/26 11:01:17;;;;;;;26.47;14.27;;;;;;;;;;5037790;28;21382;-74
2022/01/26 11:03:43;;;;;;;25.83;12.50;;;;;;;;;;5017419;28;22493;-75
2022/01/26 11:06:09;;;;;;;21.77;11.47;;;;;;;;;;5040074;28;20444;-74
2022/01/26 11:08:36;;;;;;;24.77;12.00;;;;;;;;;;5035457;28;20444;-76
2022/01/26 11:11:02;;;;;;;23.90;14.70;;;;;;;;;;5040338;28;20458;-74
2022/01/26 11:13:29;;;;;;;29.00;14.10;;;;;;;;;;5021280;28;20943;-74
2022/01/26 11:16:07;;;;;;;29.73;15.70;;;;;;;;;;5041911;28;22173;-75
2022/01/26 11:18:43;;;;;;;30.10;14.00;;;;;;;;;;5017754;28;22967;-74
2022/01/26 11:21:14;;;;;;;31.67;17.73;;;;;;;;;;5035602;28;20441;-74
2022/01/26 11:23:41;;;;;;;27.70;14.60;;;;;;;;;;5017252;28;20473;-74
2022/01/26 11:26:07;;;;;;;41.47;19.07;;;;;;;;;;5034806;28;20941;-75
2022/01/26 11:28:33;;;;;;;35.70;15.27;;;;;;;;;;4989231;28;20440;-76
2022/01/26 11:31:05;;;;;;;46.37;16.70;;;;;;;;;;5042654;28;21215;-75
2022/01/26 11:33:33;;;;;;;39.70;18.23;;;;;;;;;;4986701;28;20454;-74
2022/01/26 11:36:00;;;;;;;37.63;16.30;;;;;;;;;;5042869;28;20430;-74
2022/01/26 11:39:04;;;;;;;37.03;16.73;;;;;;;;;;5069990;27;20850;-73
2022/01/26 11:46:54;;;;;;;32.57;14.43;;;;;;;;;;5032931;28;20475;-77
2022/01/26 11:49:26;;;;;;;36.30;14.70;;;;;;;;;;5068453;28;20562;-81
2022/01/26 11:51:55;;;;;;;26.20;15.17;;;;;;;;;;5034059;28;20434;-75
2022/01/26 11:54:25;;;;;;;29.20;13.33;;;;;;;;;;5039476;28;20435;-74
2022/01/26 11:57:07;;;;;;;32.13;13.83;;;;;;;;;;5029746;28;20434;-74
2022/01/26 11:59:37;;;;;;;42.70;18.40;;;;;;;;;;5032213;28;20560;-75
2022/01/26 12:02:19;;;;;;;39.53;14.00;;;;;;;;;;5036197;28;20448;-75
2022/01/26 12:04:47;;;;;;;34.13;17.30;;;;;;;;;;5040956;28;20457;-74
2022/01/26 12:07:22;;;;;;;48.23;15.53;;;;;;;;;;5002835;28;20532;-75
2022/01/26 12:09:48;;;;;;;29.63;13.80;;;;;;;;;;5041572;28;20449;-74
2022/01/26 12:12:18;;;;;;;37.57;14.80;;;;;;;;;;5017541;28;20523;-75
2022/01/26 12:14:46;;;;;;;36.07;16.07;;;;;;;;;;5038838;28;20500;-74
2022/01/26 12:17:29;;;;;;;36.70;13.93;;;;;;;;;;5026829;28;20434;-75
2022/01/26 12:42:38;;;;;;;26.93;15.33;;;;;;;;;;5042639;28;22543;-74
2022/01/26 12:45:04;;;;;;;39.40;15.90;;;;;;;;;;5039541;28;20565;-74
2022/01/26 12:47:33;;;;;;;33.87;14.17;;;;;;;;;;5039701;28;20556;-73
2022/01/26 12:49:59;;;;;;;29.83;16.00;;;;;;;;;;5013070;28;20442;-75
2022/01/26 12:52:25;;;;;;;44.93;14.80;;;;;;;;;;5024002;28;20442;-74
2022/01/26 12:54:51;;;;;;;25.00;12.60;;;;;;;;;;5041696;28;20430;-74
2022/01/26 12:57:17;;;;;;;25.03;13.90;;;;;;;;;;5040840;28;20434;-75
2022/01/26 12:59:44;;;;;;;23.80;13.37;;;;;;;;;;5041957;28;20445;-76
2022/01/26 13:02:10;;;;;;;36.60;16.10;;;;;;;;;;5023485;28;20457;-74
2022/01/26 13:04:36;;;;;;;30.47;14.67;;;;;;;;;;5040535;28;20835;-73
2022/01/26 13:07:02;;;;;;;30.03;15.77;;;;;;;;;;5023399;28;20449;-74
2022/01/26 13:09:29;;;;;;;27.80;14.73;;;;;;;;;;5037948;28;20442;-73
2022/01/26 13:11:56;;;;;;;30.13;12.57;;;;;;;;;;4994902;28;21118;-74
2022/01/26 13:14:28;;;;;;;32.07;15.17;;;;;;;;;;5040918;28;20465;-74
2022/01/26 13:30:54;;;;;;;28.37;15.17;;;;;;;;;;5024900;28;20455;-74
2022/01/26 13:34:01;;;;;;;35.20;16.83;;;;;;;;;;5041952;28;20441;-74
2022/01/26 13:54:58;;;;;;;34.53;15.33;;;;;;;;;;5039750;28;20445;-75
2022/01/26 13:59:55;;;;;;;34.50;16.20;;;;;;;;;;5043430;28;20434;-76
2022/01/26 14:02:21;;;;;;;26.80;15.70;;;;;;;;;;5027007;28;20541;-74
2022/01/26 14:04:47;;;;;;;23.87;10.97;;;;;;;;;;5041510;28;20433;-74
2022/01/26 14:07:13;;;;;;;24.87;11.57;;;;;;;;;;5015551;28;20554;-74
2022/01/26 14:09:40;;;;;;;28.27;15.70;;;;;;;;;;5037521;28;20436;-74
2022/01/26 14:12:10;;;;;;;30.80;12.80;;;;;;;;;;5034897;28;20450;-75
2022/01/26 14:14:42;;;;;;;25.17;12.23;;;;;;;;;;5059939;28;20919;-75
2022/01/26 14:17:14;;;;;;;26.53;12.40;;;;;;;;;;5011103;28;20900;-75
2022/01/26 14:22:49;;;;;;;24.70;12.37;;;;;;;;;;5051628;28;20461;-74
2022/01/26 14:25:24;;;;;;;20.20;9.70;;;;;;;;;;5042298;28;20441;-75
2022/01/26 14:27:54;;;;;;;31.43;10.93;;;;;;;;;;5064177;28;20462;-74
2022/01/26 14:30:36;;;;;;;30.93;12.90;;;;;;;;;;5037615;28;20440;-74
2022/01/26 14:55:25;;;;;;;29.73;13.10;;;;;;;;;;5036899;28;20452;-73
2022/01/26 15:00:57;;;;;;;14.80;10.37;;;;;;;;;;5048117;28;20509;-76
2022/01/26 15:42:58;;;;;;;24.80;12.70;;;;;;;;;;5041749;28;20958;-75
2022/01/26 15:51:04;;;;;;;24.93;11.63;;;;;;;;;;4991276;28;20469;-76
2022/01/26 16:07:37;;;;;;;25.10;12.30;;;;;;;;;;5057110;28;20953;-75
2022/01/26 17:43:17;;;;;;;21.83;11.80;;;;;;;;;;5042225;28;20437;-76
2022/01/26 18:06:26;;;;;;;33.40;13.13;;;;;;;;;;5031544;28;20443;-78
2022/01/26 18:33:12;;;;;;;24.23;13.00;;;;;;;;;;5060867;28;20544;-79
2022/01/26 18:46:24;;;;;;;39.07;13.73;;;;;;;;;;5059843;28;20439;-78
2022/01/26 18:51:36;;;;;;;30.07;13.23;;;;;;;;;;5040586;28;20440;-78
2022/01/26 18:54:02;;;;;;;32.50;15.80;;;;;;;;;;5058590;28;20488;-78
2022/01/26 18:56:28;;;;;;;28.20;11.80;;;;;;;;;;5036155;28;20450;-77
2022/01/26 18:58:54;;;;;;;29.13;13.37;;;;;;;;;;5059465;28;20543;-77
2022/01/26 19:01:20;;;;;;;36.97;15.70;;;;;;;;;;5051246;28;20507;-77
2022/01/26 19:03:46;;;;;;;38.13;15.00;;;;;;;;;;5058995;28;21287;-79
2022/01/26 19:06:12;;;;;;;23.63;12.23;;;;;;;;;;5019904;28;20447;-78
2022/01/26 19:08:40;;;;;;;30.70;13.10;;;;;;;;;;5061492;28;20433;-76
2022/01/26 19:11:10;;;;;;;29.67;14.70;;;;;;;;;;5028712;28;20441;-78
2022/01/26 19:13:37;;;;;;;30.17;12.70;;;;;;;;;;5057986;28;20510;-77
2022/01/26 19:16:11;;;;;;;28.77;12.53;;;;;;;;;;5035323;28;20867;-78
2022/01/26 19:18:56;;;;;;;26.00;11.73;;;;;;;;;;5059638;28;20940;-78
2022/01/26 19:26:38;;;;;;;32.10;14.63;;;;;;;;;;5029326;28;24285;-79
2022/01/26 19:29:27;;;;;;;36.07;14.60;;;;;;;;;;5050907;28;20525;-77
2022/01/26 19:50:48;;;;;;;33.00;15.13;;;;;;;;;;5057707;28;20464;-78
2022/01/26 19:53:14;;;;;;;28.20;12.47;;;;;;;;;;5033013;28;20440;-78
2022/01/26 19:55:40;;;;;;;23.67;13.57;;;;;;;;;;5059968;28;20818;-79
2022/01/26 19:58:10;;;;;;;33.67;13.70;;;;;;;;;;5013483;28;20447;-79
2022/01/26 20:00:36;;;;;;;29.47;13.17;;;;;;;;;;5060449;28;20436;-80
2022/01/26 20:03:03;;;;;;;24.87;12.07;;;;;;;;;;5056370;28;20470;-78
2022/01/26 20:05:32;;;;;;;24.80;13.63;;;;;;;;;;5050879;28;21224;-78
2022/01/26 20:08:05;;;;;;;25.73;13.70;;;;;;;;;;5015559;28;20567;-79
2022/01/26 20:10:33;;;;;;;33.00;14.60;;;;;;;;;;5053653;28;20441;-78
2022/01/26 20:13:05;;;;;;;25.27;11.70;;;;;;;;;;5049528;28;20770;-78
2022/01/26 20:15:31;;;;;;;29.40;13.47;;;;;;;;;;5045745;28;20462;-78
2022/01/26 20:17:58;;;;;;;29.90;13.27;;;;;;;;;;5032762;28;20453;-78
2022/01/26 20:20:25;;;;;;;27.43;13.87;;;;;;;;;;5047854;28;20450;-79
2022/01/26 20:22:50;;;;;;;40.27;14.47;;;;;;;;;;5041201;28;20484;-78
2022/01/26 20:25:18;;;;;;;26.90;12.57;;;;;;;;;;5049868;28;20431;-78
2022/01/26 20:27:44;;;;;;;31.17;14.47;;;;;;;;;;5021476;28;23133;-78
2022/01/26 20:30:17;;;;;;;26.57;12.27;;;;;;;;;;5016948;28;24157;-78
2022/01/26 20:32:44;;;;;;;30.67;13.80;;;;;;;;;;5039997;28;20479;-78
2022/01/26 20:35:10;;;;;;;30.53;14.20;;;;;;;;;;5026215;28;20438;-78
2022/01/26 20:37:36;;;;;;;24.00;12.53;;;;;;;;;;5043007;28;20577;-78
2022/01/26 20:40:03;;;;;;;25.27;10.93;;;;;;;;;;5019273;28;20630;-78
2022/01/26 20:42:29;;;;;;;29.97;14.50;;;;;;;;;;5053076;28;20441;-78
2022/01/26 20:44:55;;;;;;;28.37;14.30;;;;;;;;;;5052482;28;20474;-79
2022/01/26 20:47:21;;;;;;;29.67;11.10;;;;;;;;;;5055895;28;20467;-77
2022/01/26 20:49:47;;;;;;;26.70;12.47;;;;;;;;;;5037906;28;20445;-78
2022/01/26 20:52:13;;;;;;;31.07;13.80;;;;;;;;;;5054119;28;20438;-79
2022/01/26 20:54:39;;;;;;;30.77;15.00;;;;;;;;;;5055594;28;20436;-79
2022/01/26 20:57:05;;;;;;;30.50;13.27;;;;;;;;;;5057566;28;20435;-78
2022/01/26 20:59:31;;;;;;;38.97;16.53;;;;;;;;;;5035983;28;20449;-78
2022/01/26 21:01:57;;;;;;;30.17;14.73;;;;;;;;;;5056872;28;20438;-78
2022/01/26 21:04:24;;;;;;;35.83;13.83;;;;;;;;;;5038767;28;21372;-78
2022/01/26 21:06:50;;;;;;;28.97;13.93;;;;;;;;;;5058339;28;20446;-80
2022/01/26 21:09:16;;;;;;;20.37;12.37;;;;;;;;;;5051086;28;20453;-79
2022/01/26 21:11:42;;;;;;;25.93;12.73;;;;;;;;;;5051915;28;20438;-78
2022/01/26 21:14:07;;;;;;;24.87;12.00;;;;;;;;;;5019961;28;20437;-79
2022/01/26 21:16:34;;;;;;;26.10;15.13;;;;;;;;;;5050288;28;20452;-77
2022/01/26 21:19:00;;;;;;;28.07;11.87;;;;;;;;;;5028885;28;20472;-77
2022/01/26 21:21:26;;;;;;;23.50;11.90;;;;;;;;;;5045509;28;20892;-76
2022/01/26 21:23:55;;;;;;;21.87;11.60;;;;;;;;;;5044770;28;20484;-76
2022/01/26 21:26:21;;;;;;;25.27;12.13;;;;;;;;;;5041097;28;20939;-76
2022/01/26 21:28:47;;;;;;;26.53;12.90;;;;;;;;;;5029780;28;21179;-77
2022/01/26 21:31:14;;;;;;;27.83;12.67;;;;;;;;;;5047355;28;20477;-78
2022/01/26 21:33:42;;;;;;;35.40;15.20;;;;;;;;;;5058159;28;20437;-76
2022/01/26 21:36:12;;;;;;;26.33;12.87;;;;;;;;;;5052058;28;20863;-77
2022/01/26 21:38:38;;;;;;;24.37;13.63;;;;;;;;;;5044647;28;20441;-77